sensor_id;sensor_type;location;lat;lon;timestamp;temperature;humidity
10390;DHT22;5241;47.830;12.972;2023-12-04T00:02:10;-4.30;99.90
10390;DHT22;5241;47.830;12.972;2023-12-04T00:04:36;-4.20;99.90
10390;DHT22;5241;47.830;12.972;2023-12-04T00:07:01;-4.20;99.90
10390;DHT22;5241;47.830;12.972;2023-12-04T00:09:27;-4.30;99.90
10390;DHT22;5241;47.830;12.972;2023-12-04T00:11:53;-4.20;99.90
10390;DHT22;5241;47.830;12.972;2023-12-04T00:14:19;-4.20;99.90
10390;DHT22;5241;47.830;12.972;2023-12-04T00:16:44;-4.30;99.90
10390;DHT22;5241;47.830;12.972;2023-12-04T00:19:10;-4.30;99.90
10390;DHT22;5241;47.830;12.972;2023-12-04T00:21:35;-4.30;99.90
10390;DHT22;5241;47.830;12.972;2023-12-04T00:24:01;-4.30;99.90
10390;DHT22;5241;47.830;12.972;2023-12-04T00:26:26;-4.30;99.90
10390;DHT22;5241;47.830;12.972;2023-12-04T00:28:52;-4.30;99.90
10390;DHT22;5241;47.830;12.972;2023-12-04T00:31:17;-4.30;99.90
10390;DHT22;5241;47.830;12.972;2023-12-04T00:33:43;-4.30;99.90
10390;DHT22;5241;47.830;12.972;2023-12-04T00:36:09;-4.40;99.90
10390;DHT22;5241;47.830;12.972;2023-12-04T00:38:35;-4.30;99.90
10390;DHT22;5241;47.830;12.972;2023-12-04T00:41:00;-4.40;99.90
10390;DHT22;5241;47.830;12.972;2023-12-04T00:43:26;-4.40;99.90
10390;DHT22;5241;47.830;12.972;2023-12-04T00:45:51;-4.40;99.90
10390;DHT22;5241;47.830;12.972;2023-12-04T00:48:17;-4.30;99.90
10390;DHT22;5241;47.830;12.972;2023-12-04T00:50:42;-4.40;99.90
10390;DHT22;5241;47.830;12.972;2023-12-04T00:53:08;-4.30;99.90
10390;DHT22;5241;47.830;12.972;2023-12-04T00:55:33;-4.30;99.90
10390;DHT22;5241;47.830;12.972;2023-12-04T00:57:59;-4.20;99.90
10390;DHT22;5241;47.830;12.972;2023-12-04T01:00:25;-4.20;99.90
10390;DHT22;5241;47.830;12.972;2023-12-04T01:02:51;-4.20;99.90
10390;DHT22;5241;47.830;12.972;2023-12-04T01:05:16;-4.10;99.90
10390;DHT22;5241;47.830;12.972;2023-12-04T01:07:42;-4.10;99.90
10390;DHT22;5241;47.830;12.972;2023-12-04T01:10:08;-4.10;99.90
10390;DHT22;5241;47.830;12.972;2023-12-04T01:12:33;-4.10;99.90
10390;DHT22;5241;47.830;12.972;2023-12-04T01:14:59;-4.10;99.90
10390;DHT22;5241;47.830;12.972;2023-12-04T01:17:24;-4.20;99.90
10390;DHT22;5241;47.830;12.972;2023-12-04T01:19:50;-4.20;99.90
10390;DHT22;5241;47.830;12.972;2023-12-04T01:22:15;-4.30;99.90
10390;DHT22;5241;47.830;12.972;2023-12-04T01:24:41;-4.30;99.90
10390;DHT22;5241;47.830;12.972;2023-12-04T01:27:06;-4.30;99.90
10390;DHT22;5241;47.830;12.972;2023-12-04T01:29:32;-4.20;99.90
10390;DHT22;5241;47.830;12.972;2023-12-04T01:31:58;-4.30;99.90
10390;DHT22;5241;47.830;12.972;2023-12-04T01:34:23;-4.30;99.90
10390;DHT22;5241;47.830;12.972;2023-12-04T01:36:49;-4.20;99.90
10390;DHT22;5241;47.830;12.972;2023-12-04T01:39:14;-4.20;99.90
10390;DHT22;5241;47.830;12.972;2023-12-04T01:41:40;-4.10;99.90
10390;DHT22;5241;47.830;12.972;2023-12-04T01:44:05;-4.10;99.90
10390;DHT22;5241;47.830;12.972;2023-12-04T01:46:31;-4.20;99.90
10390;DHT22;5241;47.830;12.972;2023-12-04T01:48:58;-4.20;99.90
10390;DHT22;5241;47.830;12.972;2023-12-04T01:51:25;-4.10;99.90
10390;DHT22;5241;47.830;12.972;2023-12-04T01:53:51;-4.20;99.90
10390;DHT22;5241;47.830;12.972;2023-12-04T01:56:18;-4.20;99.90
10390;DHT22;5241;47.830;12.972;2023-12-04T01:58:45;-4.20;99.90
10390;DHT22;5241;47.830;12.972;2023-12-04T02:01:11;-4.30;99.90
10390;DHT22;5241;47.830;12.972;2023-12-04T02:03:36;-4.30;99.90
10390;DHT22;5241;47.830;12.972;2023-12-04T02:06:02;-4.40;99.90
10390;DHT22;5241;47.830;12.972;2023-12-04T02:08:29;-4.30;99.90
10390;DHT22;5241;47.830;12.972;2023-12-04T02:10:55;-4.30;99.90
10390;DHT22;5241;47.830;12.972;2023-12-04T02:13:21;-4.30;99.90
10390;DHT22;5241;47.830;12.972;2023-12-04T02:15:49;-4.30;99.90
10390;DHT22;5241;47.830;12.972;2023-12-04T02:18:17;-4.30;99.90
10390;DHT22;5241;47.830;12.972;2023-12-04T02:20:43;-4.30;99.90
10390;DHT22;5241;47.830;12.972;2023-12-04T02:23:09;-4.30;99.90
10390;DHT22;5241;47.830;12.972;2023-12-04T02:25:34;-4.30;99.90
10390;DHT22;5241;47.830;12.972;2023-12-04T02:28:04;-4.40;99.90
10390;DHT22;5241;47.830;12.972;2023-12-04T02:30:31;-4.40;99.90
10390;DHT22;5241;47.830;12.972;2023-12-04T02:32:59;-4.30;99.90
10390;DHT22;5241;47.830;12.972;2023-12-04T02:35:28;-4.30;99.90
10390;DHT22;5241;47.830;12.972;2023-12-04T02:37:56;-4.30;99.90
10390;DHT22;5241;47.830;12.972;2023-12-04T02:40:23;-4.40;99.90
10390;DHT22;5241;47.830;12.972;2023-12-04T02:42:49;-4.40;99.90
10390;DHT22;5241;47.830;12.972;2023-12-04T02:45:15;-4.40;99.90
10390;DHT22;5241;47.830;12.972;2023-12-04T02:47:40;-4.50;99.90
10390;DHT22;5241;47.830;12.972;2023-12-04T02:50:06;-4.50;99.90
10390;DHT22;5241;47.830;12.972;2023-12-04T02:52:32;-4.40;99.90
10390;DHT22;5241;47.830;12.972;2023-12-04T02:54:58;-4.50;99.90
10390;DHT22;5241;47.830;12.972;2023-12-04T02:57:23;-4.60;99.90
10390;DHT22;5241;47.830;12.972;2023-12-04T02:59:49;-4.70;99.90
10390;DHT22;5241;47.830;12.972;2023-12-04T03:02:14;-4.80;99.90
10390;DHT22;5241;47.830;12.972;2023-12-04T03:04:40;-4.80;99.90
10390;DHT22;5241;47.830;12.972;2023-12-04T03:07:06;-4.80;99.90
10390;DHT22;5241;47.830;12.972;2023-12-04T03:09:31;-4.70;99.90
10390;DHT22;5241;47.830;12.972;2023-12-04T03:11:57;-4.60;99.90
10390;DHT22;5241;47.830;12.972;2023-12-04T03:14:22;-4.70;99.90
10390;DHT22;5241;47.830;12.972;2023-12-04T03:16:49;-4.60;99.90
10390;DHT22;5241;47.830;12.972;2023-12-04T03:19:14;-4.60;99.90
10390;DHT22;5241;47.830;12.972;2023-12-04T03:21:40;-4.70;99.90
10390;DHT22;5241;47.830;12.972;2023-12-04T03:24:05;-4.70;99.90
10390;DHT22;5241;47.830;12.972;2023-12-04T03:26:31;-4.60;99.90
10390;DHT22;5241;47.830;12.972;2023-12-04T03:28:57;-4.60;99.90
10390;DHT22;5241;47.830;12.972;2023-12-04T03:31:23;-4.70;99.90
10390;DHT22;5241;47.830;12.972;2023-12-04T03:33:48;-4.70;99.90
10390;DHT22;5241;47.830;12.972;2023-12-04T03:36:14;-4.70;99.90
10390;DHT22;5241;47.830;12.972;2023-12-04T03:38:39;-4.60;99.90
10390;DHT22;5241;47.830;12.972;2023-12-04T03:41:12;-4.60;99.90
10390;DHT22;5241;47.830;12.972;2023-12-04T03:43:38;-4.70;99.90
10390;DHT22;5241;47.830;12.972;2023-12-04T03:46:04;-4.70;99.90
10390;DHT22;5241;47.830;12.972;2023-12-04T03:48:29;-4.70;99.90
10390;DHT22;5241;47.830;12.972;2023-12-04T03:50:55;-4.70;99.90
10390;DHT22;5241;47.830;12.972;2023-12-04T03:53:20;-4.60;99.90
10390;DHT22;5241;47.830;12.972;2023-12-04T03:55:46;-4.60;99.90
10390;DHT22;5241;47.830;12.972;2023-12-04T03:58:11;-4.60;99.90
10390;DHT22;5241;47.830;12.972;2023-12-04T04:00:37;-4.70;99.90
10390;DHT22;5241;47.830;12.972;2023-12-04T04:03:06;-4.60;99.90
10390;DHT22;5241;47.830;12.972;2023-12-04T04:05:32;-4.70;99.90
10390;DHT22;5241;47.830;12.972;2023-12-04T04:07:59;-4.60;99.90
10390;DHT22;5241;47.830;12.972;2023-12-04T04:10:25;-4.60;99.90
10390;DHT22;5241;47.830;12.972;2023-12-04T04:12:50;-4.70;99.90
10390;DHT22;5241;47.830;12.972;2023-12-04T04:15:16;-4.80;99.90
10390;DHT22;5241;47.830;12.972;2023-12-04T04:17:41;-4.80;99.90
10390;DHT22;5241;47.830;12.972;2023-12-04T04:20:08;-4.80;99.90
10390;DHT22;5241;47.830;12.972;2023-12-04T04:22:33;-4.80;99.90
10390;DHT22;5241;47.830;12.972;2023-12-04T04:25:04;-4.70;99.90
10390;DHT22;5241;47.830;12.972;2023-12-04T04:27:30;-4.70;99.90
10390;DHT22;5241;47.830;12.972;2023-12-04T04:29:55;-4.80;99.90
10390;DHT22;5241;47.830;12.972;2023-12-04T04:32:21;-4.90;99.90
10390;DHT22;5241;47.830;12.972;2023-12-04T04:34:46;-4.80;99.90
10390;DHT22;5241;47.830;12.972;2023-12-04T04:37:12;-4.60;99.90
10390;DHT22;5241;47.830;12.972;2023-12-04T04:39:39;-4.70;99.90
10390;DHT22;5241;47.830;12.972;2023-12-04T04:42:05;-4.50;99.90
10390;DHT22;5241;47.830;12.972;2023-12-04T04:44:31;-4.50;99.90
10390;DHT22;5241;47.830;12.972;2023-12-04T04:46:56;-4.50;99.90
10390;DHT22;5241;47.830;12.972;2023-12-04T04:49:22;-4.50;99.90
10390;DHT22;5241;47.830;12.972;2023-12-04T04:51:47;-4.50;99.90
10390;DHT22;5241;47.830;12.972;2023-12-04T04:54:13;-4.60;99.90
10390;DHT22;5241;47.830;12.972;2023-12-04T04:56:38;-4.60;99.90
10390;DHT22;5241;47.830;12.972;2023-12-04T04:59:04;-4.60;99.90
10390;DHT22;5241;47.830;12.972;2023-12-04T05:01:29;-4.70;99.90
10390;DHT22;5241;47.830;12.972;2023-12-04T05:03:55;-4.80;99.90
10390;DHT22;5241;47.830;12.972;2023-12-04T05:06:20;-5.00;99.90
10390;DHT22;5241;47.830;12.972;2023-12-04T05:08:48;-5.00;99.90
10390;DHT22;5241;47.830;12.972;2023-12-04T05:11:17;-5.10;99.90
10390;DHT22;5241;47.830;12.972;2023-12-04T05:13:42;-5.10;99.90
10390;DHT22;5241;47.830;12.972;2023-12-04T05:16:08;-5.20;99.90
10390;DHT22;5241;47.830;12.972;2023-12-04T05:18:34;-5.20;99.90
10390;DHT22;5241;47.830;12.972;2023-12-04T05:20:59;-5.20;99.90
10390;DHT22;5241;47.830;12.972;2023-12-04T05:23:25;-5.20;99.90
10390;DHT22;5241;47.830;12.972;2023-12-04T05:25:50;-5.20;99.90
10390;DHT22;5241;47.830;12.972;2023-12-04T05:28:16;-5.30;99.90
10390;DHT22;5241;47.830;12.972;2023-12-04T05:30:42;-5.30;99.90
10390;DHT22;5241;47.830;12.972;2023-12-04T05:33:07;-5.30;99.90
10390;DHT22;5241;47.830;12.972;2023-12-04T05:35:33;-5.20;99.90
10390;DHT22;5241;47.830;12.972;2023-12-04T05:38:00;-5.10;99.90
10390;DHT22;5241;47.830;12.972;2023-12-04T05:40:26;-4.90;99.90
10390;DHT22;5241;47.830;12.972;2023-12-04T05:42:51;-4.80;99.90
10390;DHT22;5241;47.830;12.972;2023-12-04T05:45:17;-4.70;99.90
10390;DHT22;5241;47.830;12.972;2023-12-04T05:47:42;-4.60;99.90
10390;DHT22;5241;47.830;12.972;2023-12-04T05:50:08;-4.50;99.90
10390;DHT22;5241;47.830;12.972;2023-12-04T05:52:33;-4.30;99.90
10390;DHT22;5241;47.830;12.972;2023-12-04T05:54:59;-4.20;99.90
10390;DHT22;5241;47.830;12.972;2023-12-04T05:57:25;-4.20;99.90
10390;DHT22;5241;47.830;12.972;2023-12-04T05:59:50;-4.30;99.90
10390;DHT22;5241;47.830;12.972;2023-12-04T06:02:16;-4.50;99.90
10390;DHT22;5241;47.830;12.972;2023-12-04T06:04:41;-4.70;99.90
10390;DHT22;5241;47.830;12.972;2023-12-04T06:07:07;-4.80;99.90
10390;DHT22;5241;47.830;12.972;2023-12-04T06:09:33;-4.80;99.90
10390;DHT22;5241;47.830;12.972;2023-12-04T06:11:58;-4.90;99.90
10390;DHT22;5241;47.830;12.972;2023-12-04T06:14:29;-4.90;99.90
10390;DHT22;5241;47.830;12.972;2023-12-04T06:16:55;-4.90;99.90
10390;DHT22;5241;47.830;12.972;2023-12-04T06:19:21;-5.00;99.90
10390;DHT22;5241;47.830;12.972;2023-12-04T06:21:46;-4.90;99.90
10390;DHT22;5241;47.830;12.972;2023-12-04T06:24:12;-4.90;99.90
10390;DHT22;5241;47.830;12.972;2023-12-04T06:26:41;-4.90;99.90
10390;DHT22;5241;47.830;12.972;2023-12-04T06:29:08;-4.80;99.90
10390;DHT22;5241;47.830;12.972;2023-12-04T06:31:34;-4.70;99.90
10390;DHT22;5241;47.830;12.972;2023-12-04T06:34:00;-4.80;99.90
10390;DHT22;5241;47.830;12.972;2023-12-04T06:36:26;-4.80;99.90
10390;DHT22;5241;47.830;12.972;2023-12-04T06:38:53;-4.80;99.90
10390;DHT22;5241;47.830;12.972;2023-12-04T06:41:20;-4.70;99.90
10390;DHT22;5241;47.830;12.972;2023-12-04T06:43:47;-4.60;99.90
10390;DHT22;5241;47.830;12.972;2023-12-04T06:46:14;-4.60;99.90
10390;DHT22;5241;47.830;12.972;2023-12-04T06:48:42;-5.50;99.90
10390;DHT22;5241;47.830;12.972;2023-12-04T06:51:08;-6.20;99.90
10390;DHT22;5241;47.830;12.972;2023-12-04T06:53:34;-7.00;99.90
10390;DHT22;5241;47.830;12.972;2023-12-04T06:55:59;-7.30;99.90
10390;DHT22;5241;47.830;12.972;2023-12-04T06:58:25;-7.50;99.90
10390;DHT22;5241;47.830;12.972;2023-12-04T07:00:50;-7.70;99.90
10390;DHT22;5241;47.830;12.972;2023-12-04T07:03:16;-7.80;99.90
10390;DHT22;5241;47.830;12.972;2023-12-04T07:05:42;-7.90;99.90
10390;DHT22;5241;47.830;12.972;2023-12-04T07:08:07;-7.90;99.90
10390;DHT22;5241;47.830;12.972;2023-12-04T07:10:33;-8.00;99.90
10390;DHT22;5241;47.830;12.972;2023-12-04T07:12:58;-7.90;99.90
10390;DHT22;5241;47.830;12.972;2023-12-04T07:15:24;-8.00;99.90
10390;DHT22;5241;47.830;12.972;2023-12-04T07:17:49;-8.10;99.90
10390;DHT22;5241;47.830;12.972;2023-12-04T07:20:15;-8.10;99.90
10390;DHT22;5241;47.830;12.972;2023-12-04T07:22:41;-8.10;99.90
10390;DHT22;5241;47.830;12.972;2023-12-04T07:25:07;-8.10;99.90
10390;DHT22;5241;47.830;12.972;2023-12-04T07:27:33;-8.20;99.90
10390;DHT22;5241;47.830;12.972;2023-12-04T07:29:59;-8.10;99.90
10390;DHT22;5241;47.830;12.972;2023-12-04T07:32:25;-8.00;99.90
10390;DHT22;5241;47.830;12.972;2023-12-04T07:34:50;-7.90;99.90
10390;DHT22;5241;47.830;12.972;2023-12-04T07:37:16;-7.80;99.90
10390;DHT22;5241;47.830;12.972;2023-12-04T07:39:43;-7.70;99.90
10390;DHT22;5241;47.830;12.972;2023-12-04T07:42:11;-7.80;99.90
10390;DHT22;5241;47.830;12.972;2023-12-04T07:44:37;-7.70;99.90
10390;DHT22;5241;47.830;12.972;2023-12-04T07:47:03;-7.70;99.90
10390;DHT22;5241;47.830;12.972;2023-12-04T07:49:28;-7.60;99.90
10390;DHT22;5241;47.830;12.972;2023-12-04T07:51:54;-7.70;99.90
10390;DHT22;5241;47.830;12.972;2023-12-04T07:54:19;-7.70;99.90
10390;DHT22;5241;47.830;12.972;2023-12-04T07:56:45;-7.70;99.90
10390;DHT22;5241;47.830;12.972;2023-12-04T07:59:10;-7.50;99.90
10390;DHT22;5241;47.830;12.972;2023-12-04T08:01:36;-7.50;99.90
10390;DHT22;5241;47.830;12.972;2023-12-04T08:04:01;-7.50;99.90
10390;DHT22;5241;47.830;12.972;2023-12-04T08:06:27;-7.50;99.90
10390;DHT22;5241;47.830;12.972;2023-12-04T08:08:53;-7.40;99.90
10390;DHT22;5241;47.830;12.972;2023-12-04T08:11:19;-7.30;99.90
10390;DHT22;5241;47.830;12.972;2023-12-04T08:13:45;-7.30;99.90
10390;DHT22;5241;47.830;12.972;2023-12-04T08:16:14;-7.00;99.90
10390;DHT22;5241;47.830;12.972;2023-12-04T08:18:42;-7.00;99.90
10390;DHT22;5241;47.830;12.972;2023-12-04T08:21:09;-6.90;99.90
10390;DHT22;5241;47.830;12.972;2023-12-04T08:23:34;-6.80;99.90
10390;DHT22;5241;47.830;12.972;2023-12-04T08:26:00;-6.80;99.90
10390;DHT22;5241;47.830;12.972;2023-12-04T08:28:25;-6.90;99.90
10390;DHT22;5241;47.830;12.972;2023-12-04T08:30:51;-7.00;99.90
10390;DHT22;5241;47.830;12.972;2023-12-04T08:33:16;-7.00;99.90
10390;DHT22;5241;47.830;12.972;2023-12-04T08:35:43;-6.80;99.90
10390;DHT22;5241;47.830;12.972;2023-12-04T08:38:08;-6.80;99.90
10390;DHT22;5241;47.830;12.972;2023-12-04T08:40:34;-6.70;99.90
10390;DHT22;5241;47.830;12.972;2023-12-04T08:43:00;-6.60;99.90
10390;DHT22;5241;47.830;12.972;2023-12-04T08:45:25;-6.20;99.90
10390;DHT22;5241;47.830;12.972;2023-12-04T08:47:51;-5.70;99.90
10390;DHT22;5241;47.830;12.972;2023-12-04T08:50:16;-5.60;99.90
10390;DHT22;5241;47.830;12.972;2023-12-04T08:52:42;-5.20;99.90
10390;DHT22;5241;47.830;12.972;2023-12-04T08:55:08;-5.30;99.90
10390;DHT22;5241;47.830;12.972;2023-12-04T08:57:33;-5.00;99.90
10390;DHT22;5241;47.830;12.972;2023-12-04T08:59:59;-4.20;99.90
10390;DHT22;5241;47.830;12.972;2023-12-04T09:02:24;-3.80;99.90
10390;DHT22;5241;47.830;12.972;2023-12-04T09:04:50;-4.10;99.90
10390;DHT22;5241;47.830;12.972;2023-12-04T09:07:15;-4.80;99.90
10390;DHT22;5241;47.830;12.972;2023-12-04T09:09:41;-4.90;99.90
10390;DHT22;5241;47.830;12.972;2023-12-04T09:12:07;-5.00;99.90
10390;DHT22;5241;47.830;12.972;2023-12-04T09:14:34;-5.30;99.90
10390;DHT22;5241;47.830;12.972;2023-12-04T09:17:00;-5.50;99.90
10390;DHT22;5241;47.830;12.972;2023-12-04T09:19:25;-5.60;99.90
10390;DHT22;5241;47.830;12.972;2023-12-04T09:21:51;-5.50;99.90
10390;DHT22;5241;47.830;12.972;2023-12-04T09:24:16;-5.50;99.90
10390;DHT22;5241;47.830;12.972;2023-12-04T09:26:42;-5.50;99.90
10390;DHT22;5241;47.830;12.972;2023-12-04T09:29:10;-5.50;99.90
10390;DHT22;5241;47.830;12.972;2023-12-04T09:31:36;-5.40;99.90
10390;DHT22;5241;47.830;12.972;2023-12-04T09:34:01;-5.40;99.90
10390;DHT22;5241;47.830;12.972;2023-12-04T09:36:27;-5.20;99.90
10390;DHT22;5241;47.830;12.972;2023-12-04T09:38:52;-5.20;99.90
10390;DHT22;5241;47.830;12.972;2023-12-04T09:41:18;-5.10;99.90
10390;DHT22;5241;47.830;12.972;2023-12-04T09:43:45;-5.10;99.90
10390;DHT22;5241;47.830;12.972;2023-12-04T09:46:11;-4.90;99.90
10390;DHT22;5241;47.830;12.972;2023-12-04T09:48:37;-4.90;99.90
10390;DHT22;5241;47.830;12.972;2023-12-04T09:51:04;-4.90;99.90
10390;DHT22;5241;47.830;12.972;2023-12-04T09:53:30;-4.60;99.90
10390;DHT22;5241;47.830;12.972;2023-12-04T09:55:59;-4.70;99.90
10390;DHT22;5241;47.830;12.972;2023-12-04T09:58:28;-4.60;99.90
10390;DHT22;5241;47.830;12.972;2023-12-04T10:00:54;-4.40;99.90
10390;DHT22;5241;47.830;12.972;2023-12-04T10:03:20;-4.30;99.90
10390;DHT22;5241;47.830;12.972;2023-12-04T10:05:46;-4.30;99.90
10390;DHT22;5241;47.830;12.972;2023-12-04T10:08:12;-4.40;99.90
10390;DHT22;5241;47.830;12.972;2023-12-04T10:10:37;-4.30;99.90
10390;DHT22;5241;47.830;12.972;2023-12-04T10:13:03;-4.20;99.90
10390;DHT22;5241;47.830;12.972;2023-12-04T10:15:29;-4.20;99.90
10390;DHT22;5241;47.830;12.972;2023-12-04T10:17:54;-4.20;99.90
10390;DHT22;5241;47.830;12.972;2023-12-04T10:20:20;-4.10;99.90
10390;DHT22;5241;47.830;12.972;2023-12-04T10:23:00;-4.00;99.90
10390;DHT22;5241;47.830;12.972;2023-12-04T10:25:28;-4.00;99.90
10390;DHT22;5241;47.830;12.972;2023-12-04T10:30:33;-3.90;99.90
10390;DHT22;5241;47.830;12.972;2023-12-04T10:33:02;-3.90;99.90
10390;DHT22;5241;47.830;12.972;2023-12-04T10:35:33;-3.90;99.90
10390;DHT22;5241;47.830;12.972;2023-12-04T10:38:02;-3.90;99.90
10390;DHT22;5241;47.830;12.972;2023-12-04T10:40:32;-3.80;99.90
10390;DHT22;5241;47.830;12.972;2023-12-04T10:43:14;-3.90;99.90
10390;DHT22;5241;47.830;12.972;2023-12-04T10:45:41;-3.90;99.90
10390;DHT22;5241;47.830;12.972;2023-12-04T10:48:07;-4.00;99.90
10390;DHT22;5241;47.830;12.972;2023-12-04T10:50:37;-3.90;99.90
10390;DHT22;5241;47.830;12.972;2023-12-04T10:53:04;-3.90;99.90
10390;DHT22;5241;47.830;12.972;2023-12-04T10:55:30;-3.90;99.90
10390;DHT22;5241;47.830;12.972;2023-12-04T10:57:57;-3.90;99.90
10390;DHT22;5241;47.830;12.972;2023-12-04T11:00:23;-3.80;99.90
10390;DHT22;5241;47.830;12.972;2023-12-04T11:02:54;-3.70;99.90
10390;DHT22;5241;47.830;12.972;2023-12-04T11:05:20;-3.60;99.90
10390;DHT22;5241;47.830;12.972;2023-12-04T11:07:50;-3.60;99.90
10390;DHT22;5241;47.830;12.972;2023-12-04T11:10:21;-3.40;99.90
10390;DHT22;5241;47.830;12.972;2023-12-04T11:12:53;-3.20;99.90
10390;DHT22;5241;47.830;12.972;2023-12-04T11:15:23;-3.30;99.90
10390;DHT22;5241;47.830;12.972;2023-12-04T11:17:54;-3.40;99.90
10390;DHT22;5241;47.830;12.972;2023-12-04T11:20:24;-3.40;99.90
10390;DHT22;5241;47.830;12.972;2023-12-04T11:22:54;-3.40;99.90
10390;DHT22;5241;47.830;12.972;2023-12-04T11:25:21;-3.20;99.90
10390;DHT22;5241;47.830;12.972;2023-12-04T11:27:53;-3.30;99.90
10390;DHT22;5241;47.830;12.972;2023-12-04T11:30:20;-3.40;99.90
10390;DHT22;5241;47.830;12.972;2023-12-04T11:32:46;-3.40;99.90
10390;DHT22;5241;47.830;12.972;2023-12-04T11:35:15;-3.40;99.90
10390;DHT22;5241;47.830;12.972;2023-12-04T11:37:43;-3.40;99.90
10390;DHT22;5241;47.830;12.972;2023-12-04T11:40:16;-3.30;99.90
10390;DHT22;5241;47.830;12.972;2023-12-04T11:42:42;-3.30;99.90
10390;DHT22;5241;47.830;12.972;2023-12-04T11:45:08;-3.30;99.90
10390;DHT22;5241;47.830;12.972;2023-12-04T11:47:55;-3.20;99.90
10390;DHT22;5241;47.830;12.972;2023-12-04T11:50:21;-3.10;99.90
10390;DHT22;5241;47.830;12.972;2023-12-04T11:52:47;-3.00;99.90
10390;DHT22;5241;47.830;12.972;2023-12-04T11:55:18;-2.70;99.90
10390;DHT22;5241;47.830;12.972;2023-12-04T11:57:45;-2.80;99.90
10390;DHT22;5241;47.830;12.972;2023-12-04T12:05:22;-2.90;99.90
10390;DHT22;5241;47.830;12.972;2023-12-04T12:07:48;-2.90;99.90
10390;DHT22;5241;47.830;12.972;2023-12-04T12:10:16;-2.90;99.90
10390;DHT22;5241;47.830;12.972;2023-12-04T12:12:43;-2.70;99.90
10390;DHT22;5241;47.830;12.972;2023-12-04T12:15:09;-2.70;99.90
10390;DHT22;5241;47.830;12.972;2023-12-04T12:17:37;-2.70;99.90
10390;DHT22;5241;47.830;12.972;2023-12-04T12:20:03;-2.60;99.90
10390;DHT22;5241;47.830;12.972;2023-12-04T12:22:33;-2.60;99.90
10390;DHT22;5241;47.830;12.972;2023-12-04T12:24:58;-2.70;99.90
10390;DHT22;5241;47.830;12.972;2023-12-04T12:27:25;-2.70;99.90
10390;DHT22;5241;47.830;12.972;2023-12-04T12:29:50;-2.70;99.90
10390;DHT22;5241;47.830;12.972;2023-12-04T12:32:16;-2.70;99.90
10390;DHT22;5241;47.830;12.972;2023-12-04T12:34:41;-2.80;99.90
10390;DHT22;5241;47.830;12.972;2023-12-04T12:37:08;-2.80;99.90
10390;DHT22;5241;47.830;12.972;2023-12-04T12:39:34;-2.80;99.90
10390;DHT22;5241;47.830;12.972;2023-12-04T12:42:00;-2.80;99.90
10390;DHT22;5241;47.830;12.972;2023-12-04T12:44:27;-2.70;99.90
10390;DHT22;5241;47.830;12.972;2023-12-04T12:46:52;-2.60;99.90
10390;DHT22;5241;47.830;12.972;2023-12-04T12:49:21;-2.60;99.90
10390;DHT22;5241;47.830;12.972;2023-12-04T12:51:46;-2.70;99.90
10390;DHT22;5241;47.830;12.972;2023-12-04T12:54:13;-2.80;99.90
10390;DHT22;5241;47.830;12.972;2023-12-04T12:56:38;-2.80;99.90
10390;DHT22;5241;47.830;12.972;2023-12-04T12:59:04;-2.70;99.90
10390;DHT22;5241;47.830;12.972;2023-12-04T13:01:32;-2.70;99.90
10390;DHT22;5241;47.830;12.972;2023-12-04T13:03:58;-2.50;99.90
10390;DHT22;5241;47.830;12.972;2023-12-04T13:06:24;-2.60;99.90
10390;DHT22;5241;47.830;12.972;2023-12-04T13:08:49;-2.70;99.90
10390;DHT22;5241;47.830;12.972;2023-12-04T13:11:15;-2.70;99.90
10390;DHT22;5241;47.830;12.972;2023-12-04T13:13:40;-2.80;99.90
10390;DHT22;5241;47.830;12.972;2023-12-04T13:16:06;-2.70;99.90
10390;DHT22;5241;47.830;12.972;2023-12-04T13:18:32;-2.60;99.90
10390;DHT22;5241;47.830;12.972;2023-12-04T13:21:01;-2.60;99.90
10390;DHT22;5241;47.830;12.972;2023-12-04T13:23:26;-2.60;99.90
10390;DHT22;5241;47.830;12.972;2023-12-04T13:25:52;-2.60;99.90
10390;DHT22;5241;47.830;12.972;2023-12-04T13:28:20;-2.60;99.90
10390;DHT22;5241;47.830;12.972;2023-12-04T13:30:45;-2.70;99.90
10390;DHT22;5241;47.830;12.972;2023-12-04T13:33:11;-2.70;99.90
10390;DHT22;5241;47.830;12.972;2023-12-04T13:35:36;-2.70;99.90
10390;DHT22;5241;47.830;12.972;2023-12-04T13:38:02;-2.70;99.90
10390;DHT22;5241;47.830;12.972;2023-12-04T13:40:27;-2.70;99.90
10390;DHT22;5241;47.830;12.972;2023-12-04T13:42:57;-2.60;99.90
10390;DHT22;5241;47.830;12.972;2023-12-04T13:45:41;-2.50;99.90
10390;DHT22;5241;47.830;12.972;2023-12-04T13:48:07;-2.50;99.90
10390;DHT22;5241;47.830;12.972;2023-12-04T13:50:32;-2.50;99.90
10390;DHT22;5241;47.830;12.972;2023-12-04T13:52:58;-2.40;99.90
10390;DHT22;5241;47.830;12.972;2023-12-04T13:55:24;-2.30;99.90
10390;DHT22;5241;47.830;12.972;2023-12-04T13:58:22;-2.20;99.90
10390;DHT22;5241;47.830;12.972;2023-12-04T14:01:06;-2.20;99.90
10390;DHT22;5241;47.830;12.972;2023-12-04T14:03:44;-2.20;99.90
10390;DHT22;5241;47.830;12.972;2023-12-04T14:06:10;-2.30;99.90
10390;DHT22;5241;47.830;12.972;2023-12-04T14:08:36;-2.50;99.90
10390;DHT22;5241;47.830;12.972;2023-12-04T14:11:03;-2.70;99.90
10390;DHT22;5241;47.830;12.972;2023-12-04T14:13:29;-2.90;99.90
10390;DHT22;5241;47.830;12.972;2023-12-04T14:15:55;-3.10;99.90
10390;DHT22;5241;47.830;12.972;2023-12-04T14:18:22;-3.20;99.90
10390;DHT22;5241;47.830;12.972;2023-12-04T14:20:48;-3.20;99.90
10390;DHT22;5241;47.830;12.972;2023-12-04T14:23:13;-3.20;99.90
10390;DHT22;5241;47.830;12.972;2023-12-04T14:25:40;-3.20;99.90
10390;DHT22;5241;47.830;12.972;2023-12-04T14:28:06;-3.30;99.90
10390;DHT22;5241;47.830;12.972;2023-12-04T14:30:32;-3.30;99.90
10390;DHT22;5241;47.830;12.972;2023-12-04T14:32:58;-3.30;99.90
10390;DHT22;5241;47.830;12.972;2023-12-04T14:35:24;-3.20;99.90
10390;DHT22;5241;47.830;12.972;2023-12-04T14:37:49;-3.10;99.90
10390;DHT22;5241;47.830;12.972;2023-12-04T14:40:16;-3.20;99.90
10390;DHT22;5241;47.830;12.972;2023-12-04T14:42:42;-3.20;99.90
10390;DHT22;5241;47.830;12.972;2023-12-04T14:45:08;-3.40;99.90
10390;DHT22;5241;47.830;12.972;2023-12-04T14:47:34;-3.60;99.90
10390;DHT22;5241;47.830;12.972;2023-12-04T14:50:02;-3.70;99.90
10390;DHT22;5241;47.830;12.972;2023-12-04T14:52:28;-3.90;99.90
10390;DHT22;5241;47.830;12.972;2023-12-04T14:54:55;-4.00;99.90
10390;DHT22;5241;47.830;12.972;2023-12-04T14:57:36;-4.00;99.90
10390;DHT22;5241;47.830;12.972;2023-12-04T15:00:30;-3.90;99.90
10390;DHT22;5241;47.830;12.972;2023-12-04T15:03:18;-4.00;99.90
10390;DHT22;5241;47.830;12.972;2023-12-04T15:05:50;-4.00;99.90
10390;DHT22;5241;47.830;12.972;2023-12-04T15:08:38;-4.10;99.90
10390;DHT22;5241;47.830;12.972;2023-12-04T15:11:23;-4.10;99.90
10390;DHT22;5241;47.830;12.972;2023-12-04T15:14:00;-4.10;99.90
10390;DHT22;5241;47.830;12.972;2023-12-04T15:16:41;-3.90;99.90
10390;DHT22;5241;47.830;12.972;2023-12-04T15:19:12;-4.10;99.90
10390;DHT22;5241;47.830;12.972;2023-12-04T15:21:38;-4.10;99.90
10390;DHT22;5241;47.830;12.972;2023-12-04T15:24:06;-4.10;99.90
10390;DHT22;5241;47.830;12.972;2023-12-04T15:26:32;-4.20;99.90
10390;DHT22;5241;47.830;12.972;2023-12-04T15:28:58;-4.10;99.90
10390;DHT22;5241;47.830;12.972;2023-12-04T15:31:23;-4.10;99.90
10390;DHT22;5241;47.830;12.972;2023-12-04T15:33:49;-4.10;99.90
10390;DHT22;5241;47.830;12.972;2023-12-04T15:36:15;-4.10;99.90